Algoma, WV

6:03 PM EDT on September 18, 2014 (GMT -0400)
185 Beeson rd | Change Station
CLOSE
Current Station
Personal Weather Station
Location: Lashmeet, WV
Elevation: 2513 ft
Nearby Weather Stations

Elev 2513 ft 37.42 °N, 81.20 °W | Updated 7 seconds ago

Mostly Cloudy
Mostly Cloudy
67.6 °F
Feels Like 67.6 °F
N
0.0
Wind Variable Wind from WNW
Gusts 0.0 mph

Today
High -- | Low -- °F
--% Chance of Precip.
Yesterday
High -- | Low -- °F
Precip. -- in
7:10 AM 7:28 PM
Waning Crescent, 24% visible
Pressure 30.01 in
Visibility 10.0 miles
Clouds Few 4200 ft
Scattered Clouds 5000 ft
Overcast 8500 ft
Dew Point 59 °F
Humidity 74%
Rainfall 0.00 in
Snow Depth Not available.
UV 0 out of 12
Pollen 5.10 out of 12
Air Quality Not available.
Flu Activity Not available.
METAR KBLF 182152Z AUTO 34003KT 10SM FEW042 SCT050 OVC085 21/09 A3008 RMK AO2 SLP160 T02110094

More Conditions Fewer Conditions

Pressure 30.01 in
Visibility 10.0 miles
Clouds Few 4200 ft
Scattered Clouds 5000 ft
Overcast 8500 ft
Dew Point 59 °F
Humidity 74%
Rainfall 0.00 in
Snow Depth Not available.
UV 0 out of 12
Pollen 5.10 out of 12
Air Quality Not available.
Flu Activity Not available.
METAR KBLF 182152Z AUTO 34003KT 10SM FEW042 SCT050 OVC085 21/09 A3008 RMK AO2 SLP160 T02110094

More Conditions Fewer Conditions

10-Day Weather Forecast

Almanac

Astronomy

Sep. 18, 2014 Rise Set
Actual Time 7:10 AM EDT 7:28 PM EDT
Civil Twilight 6:44 AM EDT 7:54 PM EDT
Nautical Twilight 6:13 AM EDT 8:25 PM EDT
Astronomical Twilight 5:42 AM EDT 8:56 PM EDT
Moon 2:05 AM EDT 4:14 PM EDT
Length of Visible Light 13h 10m
Length of Day
12h 18m
Tomorrow will be 2m 22s shorter.
Waning Crescent, 24% of the Moon is Illuminated
Today
Waning Crescent
Sep 24
New
Oct 1
First Quarter
Oct 8
Full
Oct 15
Last Quarter

Today's Extremes

State Highs State Lows

Community

WunderPhotos

Upload Photos

1,754,458 photos uploaded!

WunderBlogs® & News

Nearby

Snow Depth

Station Depth Elevation
No new snow has been reported.

Earthquake Activity

City Distance Mag. Time & Date
No recent earthquake activity has been reported nearby.
Minimum magnitude displayed is 2.5.

Coastal Water Temperatures

Place Temperature
No Stations Reporting

Nearby Weather Stations